createdAt,value
2018-09-24T00:02:32.809Z,1.1
2018-09-24T00:05:32.928Z,1.2
2018-09-24T00:08:32.838Z,1.2
2018-09-24T00:11:32.772Z,1.2
2018-09-24T00:14:32.834Z,1.2
2018-09-24T00:17:32.917Z,1.2
2018-09-24T00:20:32.553Z,1.2
2018-09-24T00:23:32.607Z,1.2
2018-09-24T00:26:32.699Z,1.1
2018-09-24T00:29:32.713Z,1.1
2018-09-24T00:32:32.509Z,1.1
2018-09-24T00:35:32.713Z,1.1
2018-09-24T00:38:32.959Z,1.1
2018-09-24T00:41:32.598Z,1.1
2018-09-24T00:44:32.684Z,1.2
2018-09-24T00:47:32.822Z,1.2
2018-09-24T00:50:32.934Z,1.1
2018-09-24T00:53:32.908Z,1.2
2018-09-24T00:56:32.894Z,1.1
2018-09-24T00:59:32.703Z,1.2
2018-09-24T01:02:32.781Z,1.4
2018-09-24T01:05:33.007Z,1.2
2018-09-24T01:08:32.786Z,1.2
2018-09-24T01:11:32.814Z,1.2
2018-09-24T01:14:32.866Z,1.1
2018-09-24T01:17:32.498Z,1.2
2018-09-24T01:20:33.288Z,1.1
2018-09-24T01:23:32.845Z,1.2
2018-09-24T01:26:32.954Z,1.2
2018-09-24T01:29:32.929Z,1.1
2018-09-24T01:32:32.588Z,1.2
2018-09-24T01:35:32.906Z,1.2
2018-09-24T01:38:32.864Z,1.1
2018-09-24T01:41:32.904Z,1.2
2018-09-24T01:44:32.673Z,1.2
2018-09-24T01:47:32.561Z,1.1
2018-09-24T01:50:32.768Z,1.2
2018-09-24T01:53:32.681Z,1.2
2018-09-24T01:56:32.786Z,1.2
2018-09-24T01:59:32.664Z,1.1
2018-09-24T02:02:32.434Z,1.2
2018-09-24T02:05:32.727Z,1.5
2018-09-24T02:08:32.749Z,1.3
2018-09-24T02:11:32.615Z,1.4
2018-09-24T02:14:32.690Z,1.2
2018-09-24T02:17:32.501Z,1.3
2018-09-24T02:20:32.765Z,1.2
2018-09-24T02:23:32.561Z,1.1
2018-09-24T02:26:32.573Z,1.2
2018-09-24T02:29:32.570Z,1.2
2018-09-24T02:32:32.491Z,1.3
2018-09-24T02:35:32.670Z,1.2
2018-09-24T02:38:32.669Z,1.2
2018-09-24T02:41:32.688Z,1.2
2018-09-24T02:44:32.853Z,1.2
2018-09-24T02:47:32.574Z,1.3
2018-09-24T02:50:32.862Z,1.3
2018-09-24T02:53:32.781Z,1.2
2018-09-24T02:56:32.556Z,1.2
2018-09-24T02:59:32.705Z,1.2
2018-09-24T03:02:32.663Z,1.1
2018-09-24T03:05:32.563Z,1.2
2018-09-24T03:08:32.504Z,1.2
2018-09-24T03:11:32.489Z,1.2
2018-09-24T03:14:32.523Z,1.2
2018-09-24T03:17:32.650Z,1.2
2018-09-24T03:20:32.502Z,1.2
2018-09-24T03:23:32.521Z,1.2
2018-09-24T03:26:32.634Z,1.1
2018-09-24T03:29:32.454Z,1.2
2018-09-24T03:32:32.941Z,1.2
2018-09-24T03:35:32.687Z,1.3
2018-09-24T03:38:32.575Z,1.3
2018-09-24T03:41:32.913Z,1.2
2018-09-24T03:44:32.840Z,1.3
2018-09-24T03:47:32.683Z,1.2
2018-09-24T03:50:32.495Z,1.2
2018-09-24T03:53:32.447Z,1.2
2018-09-24T03:56:32.676Z,1.3
2018-09-24T03:59:32.531Z,1.3
2018-09-24T04:02:32.454Z,1.2
2018-09-24T04:05:32.725Z,1.3
2018-09-24T04:08:32.677Z,1.2
2018-09-24T04:11:32.576Z,1.3
2018-09-24T04:14:32.839Z,1.3
2018-09-24T04:17:32.935Z,1.3
2018-09-24T04:20:32.794Z,1.2
2018-09-24T04:23:32.732Z,1.3
2018-09-24T04:26:32.851Z,1.5
2018-09-24T04:29:32.500Z,1.5
2018-09-24T04:32:32.480Z,1.4
2018-09-24T04:35:32.447Z,1.3
2018-09-24T04:38:32.417Z,1.3
2018-09-24T04:41:32.641Z,1.3
2018-09-24T04:44:32.711Z,1.3
2018-09-24T04:47:32.567Z,1.3
2018-09-24T04:50:32.593Z,1.3
2018-09-24T04:53:32.897Z,1.3
2018-09-24T04:56:32.425Z,1.2
2018-09-24T04:59:32.450Z,1.3
2018-09-24T05:02:32.545Z,1.3
2018-09-24T05:05:32.549Z,1.3
2018-09-24T05:08:32.883Z,1.4
2018-09-24T05:11:32.480Z,1.3
2018-09-24T05:14:32.669Z,1.4
2018-09-24T05:17:32.576Z,1.3
2018-09-24T05:20:32.493Z,1.3
2018-09-24T05:23:32.573Z,1.3
2018-09-24T05:26:32.561Z,1.3
2018-09-24T05:29:32.777Z,1.2
2018-09-24T05:32:33.057Z,1.2
2018-09-24T05:35:32.731Z,1.3
2018-09-24T05:38:32.423Z,1.3
2018-09-24T05:41:32.857Z,1.3
2018-09-24T05:44:32.659Z,1.6
2018-09-24T05:47:32.504Z,1.5
2018-09-24T05:50:32.624Z,1.4
2018-09-24T05:53:32.497Z,1.4
2018-09-24T05:56:32.634Z,1.3
2018-09-24T05:59:32.466Z,1.3
2018-09-24T06:02:32.617Z,1.4
2018-09-24T06:05:32.663Z,1.4
2018-09-24T06:08:32.429Z,1.4
2018-09-24T06:11:32.623Z,1.9
2018-09-24T06:14:32.419Z,1.6
2018-09-24T06:17:32.618Z,1.4
2018-09-24T06:20:32.312Z,1.4
2018-09-24T06:23:33.056Z,1.5
2018-09-24T06:26:32.591Z,1.4
2018-09-24T06:29:32.479Z,1.4
2018-09-24T06:32:32.512Z,1.4
2018-09-24T06:35:32.589Z,1.4
2018-09-24T06:38:32.475Z,1.3
2018-09-24T06:41:32.576Z,1.4
2018-09-24T06:44:32.724Z,1.5
2018-09-24T06:47:32.499Z,1.5
2018-09-24T06:50:32.273Z,1.5
2018-09-24T06:53:32.806Z,1.4
2018-09-24T06:56:32.609Z,1.4
2018-09-24T06:59:33.623Z,1.4
2018-09-24T07:02:32.507Z,1.4
2018-09-24T07:05:34.763Z,1.4
2018-09-24T07:08:32.498Z,1.4
2018-09-24T07:11:32.536Z,1.4
2018-09-24T07:14:32.338Z,1.9
2018-09-24T07:17:32.750Z,3.2
2018-09-24T07:20:32.617Z,2.4
2018-09-24T07:23:32.621Z,1.9
2018-09-24T07:26:32.848Z,2
2018-09-24T07:29:32.612Z,2.9
2018-09-24T07:32:32.440Z,2.5
2018-09-24T07:35:32.660Z,2.2
2018-09-24T07:38:33.705Z,1.8
2018-09-24T07:41:32.508Z,2
2018-09-24T07:44:32.277Z,1.8
2018-09-24T07:47:32.710Z,2
2018-09-24T07:50:32.595Z,1.9
2018-09-24T07:53:32.518Z,1.9
2018-09-24T07:56:32.522Z,1.8
2018-09-24T07:59:32.918Z,1.7
2018-09-24T08:02:32.534Z,2
2018-09-24T08:05:32.672Z,2.6
2018-09-24T08:08:32.442Z,2.2
2018-09-24T08:11:32.749Z,1.9
2018-09-24T08:14:32.617Z,1.6
2018-09-24T08:17:32.675Z,2
2018-09-24T08:20:32.465Z,1.8
2018-09-24T08:23:32.458Z,2.2
2018-09-24T08:26:32.412Z,2
2018-09-24T08:29:32.590Z,1.7
2018-09-24T08:32:32.510Z,1.6
2018-09-24T08:35:32.760Z,1.7
2018-09-24T08:38:32.421Z,1.6
2018-09-24T08:41:32.928Z,1.5
2018-09-24T08:44:32.428Z,1.5
2018-09-24T08:47:32.341Z,1.4
2018-09-24T08:50:32.912Z,3.3
2018-09-24T08:53:32.701Z,7.4
2018-09-24T08:56:33.060Z,6.3
2018-09-24T08:59:32.845Z,5.9
2018-09-24T09:02:33.377Z,9.3
2018-09-24T09:05:32.469Z,9
2018-09-24T09:08:32.626Z,8.2
2018-09-24T09:11:32.628Z,7.8
2018-09-24T09:14:32.448Z,6.7
2018-09-24T09:17:32.389Z,7
2018-09-24T09:20:32.705Z,7.8
2018-09-24T09:23:32.554Z,7.7
2018-09-24T09:26:32.694Z,7.5
2018-09-24T09:29:34.128Z,7.2
2018-09-24T09:32:33.494Z,7.4
2018-09-24T09:35:32.557Z,7
2018-09-24T09:38:32.389Z,6.6
2018-09-24T09:41:32.530Z,6.4
2018-09-24T09:44:32.475Z,5.6
2018-09-24T09:47:32.606Z,5.6
2018-09-24T09:50:32.453Z,5
2018-09-24T09:53:33.746Z,6.2
2018-09-24T09:56:32.361Z,6.3
2018-09-24T09:59:32.774Z,7.1
2018-09-24T10:02:32.366Z,6.6
2018-09-24T10:05:32.401Z,7.7
2018-09-24T10:08:32.744Z,6.7
2018-09-24T10:11:32.625Z,6.1
2018-09-24T10:14:32.437Z,7.6
2018-09-24T10:17:32.965Z,6
2018-09-24T10:20:32.375Z,6
2018-09-24T10:23:32.468Z,5.7
2018-09-24T10:26:32.611Z,5.3
2018-09-24T10:29:32.771Z,5.2
2018-09-24T10:32:32.406Z,4.8
2018-09-24T10:35:32.660Z,4.6
2018-09-24T10:38:32.449Z,5.7
2018-09-24T10:41:32.529Z,5.6
2018-09-24T10:44:32.520Z,5.2
2018-09-24T10:47:32.403Z,5.2
2018-09-24T10:50:32.573Z,4.1
2018-09-24T10:53:32.612Z,5
2018-09-24T10:56:32.978Z,4.1
2018-09-24T10:59:34.458Z,4.2
2018-09-24T11:02:33.044Z,4.4
2018-09-24T11:05:32.633Z,4.1
2018-09-24T11:08:32.622Z,4.6
2018-09-24T11:11:32.304Z,4.5
2018-09-24T11:14:32.650Z,3.5
2018-09-24T11:17:36.353Z,3
2018-09-24T11:20:32.360Z,3.4
2018-09-24T11:23:33.241Z,3.7
2018-09-24T11:29:34.337Z,8.2
2018-09-24T11:32:32.642Z,7.8
2018-09-24T11:35:32.506Z,6.5
2018-09-24T11:38:32.653Z,5.8
2018-09-24T11:41:32.560Z,5.4
2018-09-24T11:44:32.515Z,5
2018-09-24T11:47:32.740Z,5.2
2018-09-24T11:50:32.515Z,4.8
2018-09-24T11:53:32.859Z,7.5
2018-09-24T11:56:32.979Z,5.7
2018-09-24T11:59:33.592Z,5.3
2018-09-24T12:02:32.743Z,4.7
2018-09-24T12:05:32.482Z,4.1
2018-09-24T12:08:32.313Z,3.3
2018-09-24T12:11:32.320Z,4.5
2018-09-24T12:14:32.525Z,4.4
2018-09-24T12:17:32.674Z,4.5
2018-09-24T12:20:32.559Z,4.2
2018-09-24T12:23:32.543Z,3.8
2018-09-24T12:26:32.795Z,3.4
2018-09-24T12:29:32.613Z,3.6
2018-09-24T12:32:32.505Z,3.8
2018-09-24T12:35:32.658Z,3.1
2018-09-24T12:38:33.049Z,3.3
2018-09-24T12:41:32.398Z,2.9
2018-09-24T12:44:32.505Z,2.8
2018-09-24T12:47:32.556Z,3.1
2018-09-24T12:50:32.456Z,3.1
2018-09-24T12:53:33.910Z,2.9
2018-09-24T12:56:32.498Z,3.3
2018-09-24T12:59:32.502Z,2.9
2018-09-24T13:02:32.521Z,2.5
2018-09-24T13:05:32.337Z,2.4
2018-09-24T13:08:32.637Z,2.4
2018-09-24T13:11:32.705Z,3.3
2018-09-24T13:14:33.501Z,3.9
2018-09-24T13:17:33.102Z,3.2
2018-09-24T13:20:32.604Z,3.1
2018-09-24T13:23:32.980Z,3.4
2018-09-24T13:26:33.659Z,3
2018-09-24T13:29:32.706Z,2.9
2018-09-24T13:32:32.532Z,2.7
2018-09-24T13:35:32.486Z,2.6
2018-09-24T13:38:32.374Z,2.8
2018-09-24T13:41:32.606Z,6.8
2018-09-24T13:44:32.488Z,7.3
2018-09-24T13:47:32.686Z,6.6
2018-09-24T13:50:33.780Z,6.6
2018-09-24T13:53:32.595Z,7.7
2018-09-24T13:56:32.727Z,6.9
2018-09-24T13:59:32.601Z,6.8
2018-09-24T14:02:32.605Z,7.9
2018-09-24T14:05:32.678Z,8
2018-09-24T14:08:32.670Z,10.1
2018-09-24T14:11:32.670Z,10.1
2018-09-24T14:14:33.677Z,15.9
2018-09-24T14:17:32.750Z,15.1
2018-09-24T14:20:32.688Z,12.5
2018-09-24T14:23:32.380Z,11.4
2018-09-24T14:26:32.280Z,9.3
2018-09-24T14:29:32.437Z,8.1
2018-09-24T14:32:32.396Z,8.6
2018-09-24T14:35:32.354Z,7.4
2018-09-24T14:38:32.503Z,7.6
2018-09-24T14:41:32.425Z,7.5
2018-09-24T14:44:32.691Z,7.4
2018-09-24T14:47:32.553Z,6.1
2018-09-24T14:50:32.612Z,7
2018-09-24T14:53:32.195Z,6.4
2018-09-24T14:56:32.439Z,6.8
2018-09-24T14:59:32.687Z,6
2018-09-24T15:02:32.462Z,5.6
2018-09-24T15:05:32.457Z,5.3
2018-09-24T15:08:32.486Z,4.9
2018-09-24T15:11:32.642Z,5
2018-09-24T15:14:32.806Z,5
2018-09-24T15:17:32.564Z,4
2018-09-24T15:20:32.493Z,4.5
2018-09-24T15:23:32.575Z,4.5
2018-09-24T15:26:32.334Z,3.9
2018-09-24T15:29:32.886Z,3.8
2018-09-24T15:32:32.534Z,3.6
2018-09-24T15:35:32.478Z,3.7
2018-09-24T15:38:32.445Z,4.1
2018-09-24T15:41:32.395Z,4.6
2018-09-24T15:44:32.693Z,5.3
2018-09-24T15:47:32.562Z,4
2018-09-24T15:50:32.488Z,3.5
2018-09-24T15:53:32.512Z,3.2
2018-09-24T15:56:32.695Z,4.3
2018-09-24T15:59:32.343Z,3.6
2018-09-24T16:02:32.511Z,3.5
2018-09-24T16:05:32.705Z,3.3
2018-09-24T16:08:32.419Z,3
2018-09-24T16:11:32.330Z,3.8
2018-09-24T16:14:32.465Z,4.1
2018-09-24T16:17:32.566Z,4.7
2018-09-24T16:20:32.477Z,6.7
2018-09-24T16:23:32.445Z,8.3
2018-09-24T16:26:32.503Z,9.2
2018-09-24T16:29:32.382Z,7.6
2018-09-24T16:32:32.641Z,6.2
2018-09-24T16:35:32.541Z,6.8
2018-09-24T16:38:32.224Z,5.4
2018-09-24T16:41:32.206Z,5.1
2018-09-24T16:44:32.388Z,10.7
2018-09-24T16:47:32.539Z,10.5
2018-09-24T16:50:32.650Z,9.6
2018-09-24T16:53:32.726Z,9
2018-09-24T16:56:32.415Z,7
2018-09-24T16:59:32.487Z,7
2018-09-24T17:02:32.550Z,7.7
2018-09-24T17:05:32.538Z,7.5
2018-09-24T17:08:32.646Z,6.6
2018-09-24T17:11:33.022Z,8.1
2018-09-24T17:14:32.342Z,8.8
2018-09-24T17:17:32.409Z,8.8
2018-09-24T17:20:32.338Z,8.4
2018-09-24T17:23:32.534Z,7.8
2018-09-24T17:26:32.515Z,8.2
2018-09-24T17:29:32.960Z,7
2018-09-24T17:32:32.531Z,7.9
2018-09-24T17:35:33.710Z,6.4
2018-09-24T17:38:32.465Z,7.2
2018-09-24T17:41:32.391Z,7.7
2018-09-24T17:44:32.760Z,7
2018-09-24T17:47:32.798Z,6.7
2018-09-24T17:50:32.431Z,6.1
2018-09-24T17:53:32.307Z,6.4
2018-09-24T17:56:32.275Z,5.3
2018-09-24T17:59:32.966Z,5
2018-09-24T18:02:32.244Z,4.2
2018-09-24T18:05:32.664Z,3.7
2018-09-24T18:08:32.382Z,3.5
2018-09-24T18:11:32.826Z,3.6
2018-09-24T18:14:32.510Z,3.5
2018-09-24T18:17:33.095Z,3.6
2018-09-24T18:20:32.537Z,3.6
2018-09-24T18:23:32.412Z,5.7
2018-09-24T18:26:32.527Z,4.7
2018-09-24T18:29:32.601Z,3.7
2018-09-24T18:32:32.463Z,4.7
2018-09-24T18:35:32.330Z,4.5
2018-09-24T18:38:32.407Z,4.8
2018-09-24T18:41:32.643Z,4.3
2018-09-24T18:44:32.312Z,5.7
2018-09-24T18:47:32.756Z,5
2018-09-24T18:50:32.467Z,4.1
2018-09-24T18:53:32.812Z,4.7
2018-09-24T18:56:32.179Z,3.6
2018-09-24T18:59:32.571Z,2.7
2018-09-24T19:02:32.268Z,3.2
2018-09-24T19:05:32.499Z,3.2
2018-09-24T19:08:32.429Z,3.2
2018-09-24T19:11:32.357Z,3.7
2018-09-24T19:14:32.249Z,3.1
2018-09-24T19:17:32.482Z,3
2018-09-24T19:20:32.496Z,2.8
2018-09-24T19:23:32.366Z,3.1
2018-09-24T19:26:32.555Z,3.7
2018-09-24T19:29:32.186Z,3
2018-09-24T19:32:32.305Z,2.5
2018-09-24T19:35:32.517Z,2.8
2018-09-24T19:38:32.294Z,2.5
2018-09-24T19:41:32.180Z,3.2
2018-09-24T19:44:32.548Z,3.8
2018-09-24T19:47:32.481Z,3.1
2018-09-24T19:50:32.534Z,3.5
2018-09-24T19:53:32.264Z,3.8
2018-09-24T19:56:32.540Z,3.2
2018-09-24T19:59:32.598Z,4.1
2018-09-24T20:02:32.681Z,5.9
2018-09-24T20:05:33.387Z,6.1
2018-09-24T20:08:32.499Z,4.8
2018-09-24T20:11:32.308Z,4.7
2018-09-24T20:14:32.378Z,6.7
2018-09-24T20:17:32.421Z,5
2018-09-24T20:20:32.272Z,3.9
2018-09-24T20:23:33.824Z,5.3
2018-09-24T20:26:32.338Z,3.9
2018-09-24T20:29:32.436Z,4.6
2018-09-24T20:32:33.311Z,4.2
2018-09-24T20:35:32.278Z,3.4
2018-09-24T20:38:34.110Z,2.7
2018-09-24T20:41:32.289Z,4.4
2018-09-24T20:44:32.461Z,3.3
2018-09-24T20:47:32.291Z,3.2
2018-09-24T20:50:32.417Z,2.6
2018-09-24T20:53:32.303Z,2.4
2018-09-24T20:56:32.213Z,2.4
2018-09-24T20:59:32.187Z,2.5
2018-09-24T21:02:32.333Z,2.5
2018-09-24T21:05:32.511Z,2.6
2018-09-24T21:08:32.557Z,2.6
2018-09-24T21:11:32.258Z,2.4
2018-09-24T21:14:32.738Z,2.3
2018-09-24T21:17:32.572Z,2.7
2018-09-24T21:20:32.735Z,2.5
2018-09-24T21:23:32.256Z,2.1
2018-09-24T21:26:32.625Z,2.2
2018-09-24T21:29:32.307Z,2.1
2018-09-24T21:32:32.183Z,2.1
2018-09-24T21:35:32.641Z,2.3
2018-09-24T21:38:32.478Z,2
2018-09-24T21:41:32.413Z,1.9
2018-09-24T21:44:32.721Z,2.3
2018-09-24T21:47:32.289Z,1.9
2018-09-24T21:50:32.264Z,1.8
2018-09-24T21:53:32.270Z,1.6
2018-09-24T21:56:32.163Z,1.9
2018-09-24T21:59:32.537Z,1.8
2018-09-24T22:02:32.324Z,2
2018-09-24T22:05:32.251Z,2.2
2018-09-24T22:08:32.090Z,2
2018-09-24T22:11:32.580Z,2.1
2018-09-24T22:14:32.472Z,1.7
2018-09-24T22:17:32.358Z,1.7
2018-09-24T22:20:32.436Z,1.9
2018-09-24T22:23:32.751Z,1.7
2018-09-24T22:26:32.163Z,1.6
2018-09-24T22:29:32.290Z,1.4
2018-09-24T22:32:32.435Z,2
2018-09-24T22:35:32.558Z,1.7
2018-09-24T22:38:32.191Z,1.7
2018-09-24T22:41:32.356Z,1.9
2018-09-24T22:44:32.020Z,1.6
2018-09-24T22:47:32.253Z,1.4
2018-09-24T22:50:32.205Z,1.4
2018-09-24T22:53:32.365Z,2
2018-09-24T22:56:32.106Z,1.7
2018-09-24T22:59:32.370Z,1.5
2018-09-24T23:02:32.225Z,1.8
2018-09-24T23:05:32.445Z,1.7
2018-09-24T23:08:32.267Z,1.5
2018-09-24T23:11:32.380Z,1.4
2018-09-24T23:14:32.278Z,1.4
2018-09-24T23:17:32.243Z,1.4
2018-09-24T23:20:32.188Z,1.5
2018-09-24T23:23:32.230Z,1.4
2018-09-24T23:26:32.206Z,1.3
2018-09-24T23:29:32.237Z,1.4
2018-09-24T23:32:32.373Z,1.4
2018-09-24T23:35:32.218Z,1.4
2018-09-24T23:38:32.526Z,1.3
2018-09-24T23:41:32.196Z,1.3
2018-09-24T23:44:32.132Z,1.4
2018-09-24T23:47:32.153Z,1.5
2018-09-24T23:50:32.331Z,1.4
2018-09-24T23:53:32.342Z,1.3
2018-09-24T23:56:32.323Z,1.3
2018-09-24T23:59:32.368Z,1.6
